sensor_id;sensor_type;location;lat;lon;timestamp;P1;durP1;ratioP1;P2;durP2;ratioP2
56381;SDS011;50261;51.150;4.470;2022-08-02T00:00:22;3.45;;;1.83;;
56381;SDS011;50261;51.150;4.470;2022-08-02T00:02:47;4.00;;;2.08;;
56381;SDS011;50261;51.150;4.470;2022-08-02T00:05:13;3.35;;;1.88;;
56381;SDS011;50261;51.150;4.470;2022-08-02T00:07:39;4.93;;;2.00;;
56381;SDS011;50261;51.150;4.470;2022-08-02T00:10:05;7.40;;;1.98;;
56381;SDS011;50261;51.150;4.470;2022-08-02T00:12:31;5.35;;;1.80;;
56381;SDS011;50261;51.150;4.470;2022-08-02T00:14:57;5.28;;;1.65;;
56381;SDS011;50261;51.150;4.470;2022-08-02T00:17:23;3.90;;;2.13;;
56381;SDS011;50261;51.150;4.470;2022-08-02T00:19:49;5.80;;;1.98;;
56381;SDS011;50261;51.150;4.470;2022-08-02T00:22:14;5.93;;;1.60;;
56381;SDS011;50261;51.150;4.470;2022-08-02T00:24:40;3.90;;;1.77;;
56381;SDS011;50261;51.150;4.470;2022-08-02T00:27:06;5.47;;;2.05;;
56381;SDS011;50261;51.150;4.470;2022-08-02T00:29:35;4.32;;;1.88;;
56381;SDS011;50261;51.150;4.470;2022-08-02T00:32:01;4.13;;;1.88;;
56381;SDS011;50261;51.150;4.470;2022-08-02T00:34:27;4.43;;;2.13;;
56381;SDS011;50261;51.150;4.470;2022-08-02T00:36:52;3.42;;;1.67;;
56381;SDS011;50261;51.150;4.470;2022-08-02T00:39:18;6.10;;;1.88;;
56381;SDS011;50261;51.150;4.470;2022-08-02T00:41:48;3.75;;;1.88;;
56381;SDS011;50261;51.150;4.470;2022-08-02T00:44:14;3.78;;;1.80;;
56381;SDS011;50261;51.150;4.470;2022-08-02T00:46:40;4.00;;;1.98;;
56381;SDS011;50261;51.150;4.470;2022-08-02T00:49:05;5.57;;;2.28;;
56381;SDS011;50261;51.150;4.470;2022-08-02T00:51:31;6.93;;;2.15;;
56381;SDS011;50261;51.150;4.470;2022-08-02T00:53:57;5.05;;;1.73;;
56381;SDS011;50261;51.150;4.470;2022-08-02T00:56:22;5.28;;;1.95;;
56381;SDS011;50261;51.150;4.470;2022-08-02T00:58:48;8.15;;;2.00;;
56381;SDS011;50261;51.150;4.470;2022-08-02T01:01:14;6.28;;;2.00;;
56381;SDS011;50261;51.150;4.470;2022-08-02T01:03:39;3.65;;;1.90;;
56381;SDS011;50261;51.150;4.470;2022-08-02T01:06:05;2.42;;;1.55;;
56381;SDS011;50261;51.150;4.470;2022-08-02T01:08:31;6.13;;;1.92;;
56381;SDS011;50261;51.150;4.470;2022-08-02T01:10:57;6.93;;;2.25;;
56381;SDS011;50261;51.150;4.470;2022-08-02T01:13:22;4.35;;;2.03;;
56381;SDS011;50261;51.150;4.470;2022-08-02T01:15:51;4.72;;;2.00;;
56381;SDS011;50261;51.150;4.470;2022-08-02T01:18:26;4.97;;;1.80;;
56381;SDS011;50261;51.150;4.470;2022-08-02T01:28:40;9.70;;;2.47;;
56381;SDS011;50261;51.150;4.470;2022-08-02T01:33:39;4.78;;;1.98;;
56381;SDS011;50261;51.150;4.470;2022-08-02T01:36:06;7.47;;;2.17;;
56381;SDS011;50261;51.150;4.470;2022-08-02T01:38:35;9.80;;;2.38;;
56381;SDS011;50261;51.150;4.470;2022-08-02T01:41:02;4.28;;;2.10;;
56381;SDS011;50261;51.150;4.470;2022-08-02T01:43:29;6.70;;;2.58;;
56381;SDS011;50261;51.150;4.470;2022-08-02T01:45:55;4.90;;;2.00;;
56381;SDS011;50261;51.150;4.470;2022-08-02T01:48:23;4.28;;;1.80;;
56381;SDS011;50261;51.150;4.470;2022-08-02T01:50:50;5.18;;;2.20;;
56381;SDS011;50261;51.150;4.470;2022-08-02T01:53:17;4.57;;;2.25;;
56381;SDS011;50261;51.150;4.470;2022-08-02T01:55:44;3.28;;;1.98;;
56381;SDS011;50261;51.150;4.470;2022-08-02T01:58:09;3.67;;;2.10;;
56381;SDS011;50261;51.150;4.470;2022-08-02T02:00:39;5.80;;;2.22;;
56381;SDS011;50261;51.150;4.470;2022-08-02T02:03:06;5.38;;;2.38;;
56381;SDS011;50261;51.150;4.470;2022-08-02T02:05:32;4.57;;;2.42;;
56381;SDS011;50261;51.150;4.470;2022-08-02T02:07:59;5.60;;;2.50;;
56381;SDS011;50261;51.150;4.470;2022-08-02T02:10:27;5.35;;;2.00;;
56381;SDS011;50261;51.150;4.470;2022-08-02T02:12:53;3.25;;;1.90;;
56381;SDS011;50261;51.150;4.470;2022-08-02T02:15:19;8.98;;;2.22;;
56381;SDS011;50261;51.150;4.470;2022-08-02T02:17:46;6.05;;;2.13;;
56381;SDS011;50261;51.150;4.470;2022-08-02T02:20:13;8.18;;;2.58;;
56381;SDS011;50261;51.150;4.470;2022-08-02T02:22:39;6.97;;;2.60;;
56381;SDS011;50261;51.150;4.470;2022-08-02T02:25:06;6.50;;;2.80;;
56381;SDS011;50261;51.150;4.470;2022-08-02T02:27:32;5.97;;;2.63;;
56381;SDS011;50261;51.150;4.470;2022-08-02T02:29:58;5.93;;;2.60;;
56381;SDS011;50261;51.150;4.470;2022-08-02T02:32:24;5.10;;;2.20;;
56381;SDS011;50261;51.150;4.470;2022-08-02T02:34:51;4.88;;;2.42;;
56381;SDS011;50261;51.150;4.470;2022-08-02T02:37:21;5.40;;;2.53;;
56381;SDS011;50261;51.150;4.470;2022-08-02T02:39:48;5.53;;;2.53;;
56381;SDS011;50261;51.150;4.470;2022-08-02T02:42:15;5.28;;;2.60;;
56381;SDS011;50261;51.150;4.470;2022-08-02T02:44:41;6.72;;;2.53;;
56381;SDS011;50261;51.150;4.470;2022-08-02T02:47:08;6.95;;;2.63;;
56381;SDS011;50261;51.150;4.470;2022-08-02T02:49:35;4.93;;;2.60;;
56381;SDS011;50261;51.150;4.470;2022-08-02T02:52:02;8.98;;;3.17;;
56381;SDS011;50261;51.150;4.470;2022-08-02T02:54:29;5.63;;;2.10;;
56381;SDS011;50261;51.150;4.470;2022-08-02T02:56:55;4.88;;;2.42;;
56381;SDS011;50261;51.150;4.470;2022-08-02T02:59:22;5.70;;;2.38;;
56381;SDS011;50261;51.150;4.470;2022-08-02T03:01:48;4.55;;;2.17;;
56381;SDS011;50261;51.150;4.470;2022-08-02T03:04:14;4.75;;;2.80;;
56381;SDS011;50261;51.150;4.470;2022-08-02T03:06:40;5.82;;;2.60;;
56381;SDS011;50261;51.150;4.470;2022-08-02T03:09:07;8.10;;;2.47;;
56381;SDS011;50261;51.150;4.470;2022-08-02T03:11:32;13.07;;;2.50;;
56381;SDS011;50261;51.150;4.470;2022-08-02T03:14:00;5.10;;;2.55;;
56381;SDS011;50261;51.150;4.470;2022-08-02T03:16:26;6.55;;;2.40;;
56381;SDS011;50261;51.150;4.470;2022-08-02T03:18:53;4.97;;;2.38;;
56381;SDS011;50261;51.150;4.470;2022-08-02T03:21:19;8.43;;;2.22;;
56381;SDS011;50261;51.150;4.470;2022-08-02T03:23:45;8.75;;;2.90;;
56381;SDS011;50261;51.150;4.470;2022-08-02T03:26:11;7.22;;;2.58;;
56381;SDS011;50261;51.150;4.470;2022-08-02T03:28:36;4.75;;;2.70;;
56381;SDS011;50261;51.150;4.470;2022-08-02T03:31:02;3.83;;;2.28;;
56381;SDS011;50261;51.150;4.470;2022-08-02T03:33:28;5.70;;;2.55;;
56381;SDS011;50261;51.150;4.470;2022-08-02T03:35:55;6.85;;;2.70;;
56381;SDS011;50261;51.150;4.470;2022-08-02T03:38:22;5.25;;;2.50;;
56381;SDS011;50261;51.150;4.470;2022-08-02T03:40:48;6.82;;;3.03;;
56381;SDS011;50261;51.150;4.470;2022-08-02T03:43:14;6.13;;;2.70;;
56381;SDS011;50261;51.150;4.470;2022-08-02T03:45:44;5.00;;;2.45;;
56381;SDS011;50261;51.150;4.470;2022-08-02T03:48:11;4.47;;;2.72;;
56381;SDS011;50261;51.150;4.470;2022-08-02T03:50:37;6.25;;;2.80;;
56381;SDS011;50261;51.150;4.470;2022-08-02T03:53:04;6.40;;;3.03;;
56381;SDS011;50261;51.150;4.470;2022-08-02T03:55:30;3.97;;;2.35;;
56381;SDS011;50261;51.150;4.470;2022-08-02T03:57:57;4.15;;;2.58;;
56381;SDS011;50261;51.150;4.470;2022-08-02T04:00:22;7.60;;;2.85;;
56381;SDS011;50261;51.150;4.470;2022-08-02T04:02:48;6.53;;;2.90;;
56381;SDS011;50261;51.150;4.470;2022-08-02T04:05:14;5.45;;;2.65;;
56381;SDS011;50261;51.150;4.470;2022-08-02T04:07:40;6.65;;;2.60;;
56381;SDS011;50261;51.150;4.470;2022-08-02T04:10:08;4.57;;;2.75;;
56381;SDS011;50261;51.150;4.470;2022-08-02T04:12:34;8.80;;;2.55;;
56381;SDS011;50261;51.150;4.470;2022-08-02T04:15:00;7.35;;;2.85;;
56381;SDS011;50261;51.150;4.470;2022-08-02T04:17:27;6.80;;;3.00;;
56381;SDS011;50261;51.150;4.470;2022-08-02T04:20:02;5.80;;;3.00;;
56381;SDS011;50261;51.150;4.470;2022-08-02T04:22:30;5.82;;;3.47;;
56381;SDS011;50261;51.150;4.470;2022-08-02T04:25:00;8.40;;;3.40;;
56381;SDS011;50261;51.150;4.470;2022-08-02T04:27:27;7.95;;;4.82;;
56381;SDS011;50261;51.150;4.470;2022-08-02T04:29:53;7.97;;;3.95;;
56381;SDS011;50261;51.150;4.470;2022-08-02T04:32:19;8.18;;;3.40;;
56381;SDS011;50261;51.150;4.470;2022-08-02T04:34:46;9.13;;;4.40;;
56381;SDS011;50261;51.150;4.470;2022-08-02T04:37:12;5.32;;;3.95;;
56381;SDS011;50261;51.150;4.470;2022-08-02T04:39:41;10.45;;;4.03;;
56381;SDS011;50261;51.150;4.470;2022-08-02T04:42:07;7.28;;;3.85;;
56381;SDS011;50261;51.150;4.470;2022-08-02T04:44:33;12.45;;;4.40;;
56381;SDS011;50261;51.150;4.470;2022-08-02T04:46:59;11.70;;;5.30;;
56381;SDS011;50261;51.150;4.470;2022-08-02T04:49:27;9.75;;;5.57;;
56381;SDS011;50261;51.150;4.470;2022-08-02T04:51:53;8.10;;;5.60;;
56381;SDS011;50261;51.150;4.470;2022-08-02T04:54:19;9.68;;;6.55;;
56381;SDS011;50261;51.150;4.470;2022-08-02T04:56:45;12.95;;;6.53;;
56381;SDS011;50261;51.150;4.470;2022-08-02T04:59:11;12.57;;;6.68;;
56381;SDS011;50261;51.150;4.470;2022-08-02T05:01:36;11.45;;;6.43;;
56381;SDS011;50261;51.150;4.470;2022-08-02T05:04:04;11.27;;;6.63;;
56381;SDS011;50261;51.150;4.470;2022-08-02T05:06:30;12.27;;;6.45;;
56381;SDS011;50261;51.150;4.470;2022-08-02T05:08:56;12.52;;;6.75;;
56381;SDS011;50261;51.150;4.470;2022-08-02T05:11:22;15.50;;;6.22;;
56381;SDS011;50261;51.150;4.470;2022-08-02T05:13:49;21.48;;;6.32;;
56381;SDS011;50261;51.150;4.470;2022-08-02T05:16:15;11.60;;;6.55;;
56381;SDS011;50261;51.150;4.470;2022-08-02T05:18:41;10.98;;;6.57;;
56381;SDS011;50261;51.150;4.470;2022-08-02T05:21:06;10.80;;;6.57;;
56381;SDS011;50261;51.150;4.470;2022-08-02T05:23:32;11.70;;;5.82;;
56381;SDS011;50261;51.150;4.470;2022-08-02T05:25:58;9.50;;;6.13;;
56381;SDS011;50261;51.150;4.470;2022-08-02T05:28:23;12.70;;;7.57;;
56381;SDS011;50261;51.150;4.470;2022-08-02T05:30:49;13.60;;;8.02;;
56381;SDS011;50261;51.150;4.470;2022-08-02T05:33:16;11.57;;;7.75;;
56381;SDS011;50261;51.150;4.470;2022-08-02T05:35:41;18.23;;;7.60;;
56381;SDS011;50261;51.150;4.470;2022-08-02T05:38:07;19.40;;;7.28;;
56381;SDS011;50261;51.150;4.470;2022-08-02T05:40:33;12.52;;;6.82;;
56381;SDS011;50261;51.150;4.470;2022-08-02T05:42:59;10.57;;;6.75;;
56381;SDS011;50261;51.150;4.470;2022-08-02T05:45:24;9.73;;;6.22;;
56381;SDS011;50261;51.150;4.470;2022-08-02T05:47:50;11.70;;;6.35;;
56381;SDS011;50261;51.150;4.470;2022-08-02T05:50:16;9.30;;;6.18;;
56381;SDS011;50261;51.150;4.470;2022-08-02T05:52:47;13.82;;;6.63;;
56381;SDS011;50261;51.150;4.470;2022-08-02T05:55:20;11.35;;;7.30;;
56381;SDS011;50261;51.150;4.470;2022-08-02T06:00:15;13.43;;;6.93;;
56381;SDS011;50261;51.150;4.470;2022-08-02T06:05:09;14.93;;;6.57;;
56381;SDS011;50261;51.150;4.470;2022-08-02T06:07:35;8.32;;;6.10;;
56381;SDS011;50261;51.150;4.470;2022-08-02T06:10:03;10.70;;;7.05;;
56381;SDS011;50261;51.150;4.470;2022-08-02T06:12:29;12.45;;;7.00;;
56381;SDS011;50261;51.150;4.470;2022-08-02T06:14:57;8.73;;;6.95;;
56381;SDS011;50261;51.150;4.470;2022-08-02T06:17:23;10.57;;;6.88;;
56381;SDS011;50261;51.150;4.470;2022-08-02T06:19:49;8.90;;;6.80;;
56381;SDS011;50261;51.150;4.470;2022-08-02T06:22:15;11.88;;;6.55;;
56381;SDS011;50261;51.150;4.470;2022-08-02T06:24:44;10.88;;;5.63;;
56381;SDS011;50261;51.150;4.470;2022-08-02T06:27:11;9.98;;;6.20;;
56381;SDS011;50261;51.150;4.470;2022-08-02T06:29:37;11.23;;;6.35;;
56381;SDS011;50261;51.150;4.470;2022-08-02T06:32:03;13.32;;;7.32;;
56381;SDS011;50261;51.150;4.470;2022-08-02T06:34:31;10.38;;;6.65;;
56381;SDS011;50261;51.150;4.470;2022-08-02T06:37:04;9.15;;;6.15;;
56381;SDS011;50261;51.150;4.470;2022-08-02T06:39:35;9.63;;;6.57;;
56381;SDS011;50261;51.150;4.470;2022-08-02T06:42:10;11.48;;;6.53;;
56381;SDS011;50261;51.150;4.470;2022-08-02T06:44:42;12.07;;;6.38;;
56381;SDS011;50261;51.150;4.470;2022-08-02T06:47:07;8.45;;;6.43;;
56381;SDS011;50261;51.150;4.470;2022-08-02T06:49:33;12.02;;;6.50;;
56381;SDS011;50261;51.150;4.470;2022-08-02T06:51:58;7.97;;;6.10;;
56381;SDS011;50261;51.150;4.470;2022-08-02T06:54:24;11.98;;;5.90;;
56381;SDS011;50261;51.150;4.470;2022-08-02T06:56:50;7.22;;;4.82;;
56381;SDS011;50261;51.150;4.470;2022-08-02T06:59:15;6.25;;;4.15;;
56381;SDS011;50261;51.150;4.470;2022-08-02T07:01:41;7.90;;;3.08;;
56381;SDS011;50261;51.150;4.470;2022-08-02T07:04:07;5.50;;;3.47;;
56381;SDS011;50261;51.150;4.470;2022-08-02T07:06:33;5.95;;;3.70;;
56381;SDS011;50261;51.150;4.470;2022-08-02T07:08:59;9.18;;;3.25;;
56381;SDS011;50261;51.150;4.470;2022-08-02T07:11:25;8.00;;;3.40;;
56381;SDS011;50261;51.150;4.470;2022-08-02T07:13:50;4.60;;;2.88;;
56381;SDS011;50261;51.150;4.470;2022-08-02T07:16:16;4.53;;;3.22;;
56381;SDS011;50261;51.150;4.470;2022-08-02T07:18:42;6.20;;;3.22;;
56381;SDS011;50261;51.150;4.470;2022-08-02T07:21:07;5.88;;;3.05;;
56381;SDS011;50261;51.150;4.470;2022-08-02T07:23:33;5.45;;;3.33;;
56381;SDS011;50261;51.150;4.470;2022-08-02T07:25:59;6.20;;;3.00;;
56381;SDS011;50261;51.150;4.470;2022-08-02T07:28:25;4.47;;;2.83;;
56381;SDS011;50261;51.150;4.470;2022-08-02T07:30:51;7.50;;;3.38;;
56381;SDS011;50261;51.150;4.470;2022-08-02T07:33:16;7.13;;;3.08;;
56381;SDS011;50261;51.150;4.470;2022-08-02T07:35:42;6.30;;;2.63;;
56381;SDS011;50261;51.150;4.470;2022-08-02T07:38:08;7.65;;;3.10;;
56381;SDS011;50261;51.150;4.470;2022-08-02T07:40:33;6.88;;;2.70;;
56381;SDS011;50261;51.150;4.470;2022-08-02T07:42:59;3.75;;;2.28;;
56381;SDS011;50261;51.150;4.470;2022-08-02T07:45:25;6.25;;;2.00;;
56381;SDS011;50261;51.150;4.470;2022-08-02T07:47:51;2.70;;;2.13;;
56381;SDS011;50261;51.150;4.470;2022-08-02T07:50:17;5.20;;;2.65;;
56381;SDS011;50261;51.150;4.470;2022-08-02T07:52:43;4.97;;;2.08;;
56381;SDS011;50261;51.150;4.470;2022-08-02T07:55:10;4.72;;;2.20;;
56381;SDS011;50261;51.150;4.470;2022-08-02T07:57:36;4.25;;;2.08;;
56381;SDS011;50261;51.150;4.470;2022-08-02T08:00:02;4.55;;;2.10;;
56381;SDS011;50261;51.150;4.470;2022-08-02T08:02:36;4.20;;;2.13;;
56381;SDS011;50261;51.150;4.470;2022-08-02T08:05:02;3.08;;;1.67;;
56381;SDS011;50261;51.150;4.470;2022-08-02T08:07:28;5.05;;;1.98;;
56381;SDS011;50261;51.150;4.470;2022-08-02T08:09:54;2.60;;;1.83;;
56381;SDS011;50261;51.150;4.470;2022-08-02T08:12:19;7.38;;;1.83;;
56381;SDS011;50261;51.150;4.470;2022-08-02T08:14:45;3.85;;;1.88;;
56381;SDS011;50261;51.150;4.470;2022-08-02T08:17:11;2.35;;;1.40;;
56381;SDS011;50261;51.150;4.470;2022-08-02T08:19:36;3.17;;;1.67;;
56381;SDS011;50261;51.150;4.470;2022-08-02T08:22:02;4.25;;;1.60;;
56381;SDS011;50261;51.150;4.470;2022-08-02T08:24:28;2.13;;;1.50;;
56381;SDS011;50261;51.150;4.470;2022-08-02T08:26:54;3.03;;;1.60;;
56381;SDS011;50261;51.150;4.470;2022-08-02T08:29:19;4.55;;;1.70;;
56381;SDS011;50261;51.150;4.470;2022-08-02T08:31:45;2.33;;;1.48;;
56381;SDS011;50261;51.150;4.470;2022-08-02T08:34:11;2.08;;;1.45;;
56381;SDS011;50261;51.150;4.470;2022-08-02T08:36:37;4.00;;;1.35;;
56381;SDS011;50261;51.150;4.470;2022-08-02T08:39:03;4.35;;;1.77;;
56381;SDS011;50261;51.150;4.470;2022-08-02T08:41:29;3.13;;;1.65;;
56381;SDS011;50261;51.150;4.470;2022-08-02T08:43:54;3.88;;;1.50;;
56381;SDS011;50261;51.150;4.470;2022-08-02T08:46:32;2.15;;;1.50;;
56381;SDS011;50261;51.150;4.470;2022-08-02T08:48:59;4.18;;;1.30;;
56381;SDS011;50261;51.150;4.470;2022-08-02T08:51:35;3.95;;;1.33;;
56381;SDS011;50261;51.150;4.470;2022-08-02T08:54:02;3.75;;;1.58;;
56381;SDS011;50261;51.150;4.470;2022-08-02T08:56:32;1.75;;;1.35;;
56381;SDS011;50261;51.150;4.470;2022-08-02T08:58:59;2.75;;;1.52;;
56381;SDS011;50261;51.150;4.470;2022-08-02T09:01:24;2.97;;;1.45;;
56381;SDS011;50261;51.150;4.470;2022-08-02T09:03:50;4.47;;;1.50;;
56381;SDS011;50261;51.150;4.470;2022-08-02T09:06:16;3.80;;;1.52;;
56381;SDS011;50261;51.150;4.470;2022-08-02T09:08:42;4.75;;;1.98;;
56381;SDS011;50261;51.150;4.470;2022-08-02T09:11:14;3.50;;;1.40;;
56381;SDS011;50261;51.150;4.470;2022-08-02T09:13:48;4.20;;;1.30;;
56381;SDS011;50261;51.150;4.470;2022-08-02T09:16:14;2.38;;;1.42;;
56381;SDS011;50261;51.150;4.470;2022-08-02T09:18:42;4.00;;;1.30;;
56381;SDS011;50261;51.150;4.470;2022-08-02T09:21:11;6.38;;;1.33;;
56381;SDS011;50261;51.150;4.470;2022-08-02T09:23:39;7.03;;;1.88;;
56381;SDS011;50261;51.150;4.470;2022-08-02T09:26:07;3.88;;;1.35;;
56381;SDS011;50261;51.150;4.470;2022-08-02T09:28:34;3.90;;;1.48;;
56381;SDS011;50261;51.150;4.470;2022-08-02T09:31:04;3.22;;;1.77;;
56381;SDS011;50261;51.150;4.470;2022-08-02T09:33:30;5.45;;;1.73;;
56381;SDS011;50261;51.150;4.470;2022-08-02T09:36:00;4.03;;;1.10;;
56381;SDS011;50261;51.150;4.470;2022-08-02T09:38:26;2.58;;;1.00;;
56381;SDS011;50261;51.150;4.470;2022-08-02T09:40:52;4.85;;;1.27;;
56381;SDS011;50261;51.150;4.470;2022-08-02T09:43:17;2.38;;;1.33;;
56381;SDS011;50261;51.150;4.470;2022-08-02T09:45:45;6.25;;;1.25;;
56381;SDS011;50261;51.150;4.470;2022-08-02T09:48:11;3.35;;;1.23;;
56381;SDS011;50261;51.150;4.470;2022-08-02T09:50:37;2.92;;;1.00;;
56381;SDS011;50261;51.150;4.470;2022-08-02T09:53:04;2.08;;;1.00;;
56381;SDS011;50261;51.150;4.470;2022-08-02T09:55:30;2.33;;;1.17;;
56381;SDS011;50261;51.150;4.470;2022-08-02T09:57:55;5.95;;;1.30;;
56381;SDS011;50261;51.150;4.470;2022-08-02T10:00:21;2.50;;;1.35;;
56381;SDS011;50261;51.150;4.470;2022-08-02T10:05:45;2.15;;;1.15;;
56381;SDS011;50261;51.150;4.470;2022-08-02T10:08:11;2.13;;;0.88;;
56381;SDS011;50261;51.150;4.470;2022-08-02T10:10:37;4.47;;;1.60;;
56381;SDS011;50261;51.150;4.470;2022-08-02T10:13:03;1.85;;;1.02;;
56381;SDS011;50261;51.150;4.470;2022-08-02T10:15:29;2.72;;;1.20;;
56381;SDS011;50261;51.150;4.470;2022-08-02T10:17:55;5.30;;;1.42;;
56381;SDS011;50261;51.150;4.470;2022-08-02T10:20:20;3.47;;;1.05;;
56381;SDS011;50261;51.150;4.470;2022-08-02T10:22:46;4.20;;;1.08;;
56381;SDS011;50261;51.150;4.470;2022-08-02T10:25:12;5.35;;;1.35;;
56381;SDS011;50261;51.150;4.470;2022-08-02T10:27:38;1.73;;;1.08;;
56381;SDS011;50261;51.150;4.470;2022-08-02T10:30:03;4.30;;;1.17;;
56381;SDS011;50261;51.150;4.470;2022-08-02T10:32:30;4.00;;;0.95;;
56381;SDS011;50261;51.150;4.470;2022-08-02T10:34:59;1.73;;;1.13;;
56381;SDS011;50261;51.150;4.470;2022-08-02T10:37:27;3.42;;;1.65;;
56381;SDS011;50261;51.150;4.470;2022-08-02T10:39:54;1.83;;;0.90;;
56381;SDS011;50261;51.150;4.470;2022-08-02T10:45:16;3.22;;;0.93;;
56381;SDS011;50261;51.150;4.470;2022-08-02T10:56:03;1.60;;;0.85;;
56381;SDS011;50261;51.150;4.470;2022-08-02T10:58:30;2.88;;;1.00;;
56381;SDS011;50261;51.150;4.470;2022-08-02T11:00:57;2.28;;;0.75;;
56381;SDS011;50261;51.150;4.470;2022-08-02T11:08:28;2.92;;;0.82;;
56381;SDS011;50261;51.150;4.470;2022-08-02T11:10:57;3.80;;;1.00;;
56381;SDS011;50261;51.150;4.470;2022-08-02T11:13:24;6.32;;;1.10;;
56381;SDS011;50261;51.150;4.470;2022-08-02T11:15:55;6.07;;;1.15;;
56381;SDS011;50261;51.150;4.470;2022-08-02T11:21:27;3.67;;;1.30;;
56381;SDS011;50261;51.150;4.470;2022-08-02T11:23:54;1.77;;;1.00;;
56381;SDS011;50261;51.150;4.470;2022-08-02T11:28:55;1.90;;;1.30;;
56381;SDS011;50261;51.150;4.470;2022-08-02T11:31:20;2.90;;;1.00;;
56381;SDS011;50261;51.150;4.470;2022-08-02T11:33:48;5.60;;;1.40;;
56381;SDS011;50261;51.150;4.470;2022-08-02T11:36:13;7.55;;;1.15;;
56381;SDS011;50261;51.150;4.470;2022-08-02T11:38:39;2.78;;;1.05;;
56381;SDS011;50261;51.150;4.470;2022-08-02T11:41:05;2.80;;;1.02;;
56381;SDS011;50261;51.150;4.470;2022-08-02T11:43:31;2.83;;;0.90;;
56381;SDS011;50261;51.150;4.470;2022-08-02T11:45:57;3.50;;;1.02;;
56381;SDS011;50261;51.150;4.470;2022-08-02T11:48:33;5.93;;;1.20;;
56381;SDS011;50261;51.150;4.470;2022-08-02T11:51:06;2.80;;;1.10;;
56381;SDS011;50261;51.150;4.470;2022-08-02T11:53:51;3.13;;;1.30;;
56381;SDS011;50261;51.150;4.470;2022-08-02T11:56:27;3.55;;;0.90;;
56381;SDS011;50261;51.150;4.470;2022-08-02T11:59:26;1.42;;;0.85;;
56381;SDS011;50261;51.150;4.470;2022-08-02T12:01:45;1.77;;;0.90;;
56381;SDS011;50261;51.150;4.470;2022-08-02T12:04:10;3.60;;;1.20;;
56381;SDS011;50261;51.150;4.470;2022-08-02T12:06:36;1.90;;;0.98;;
56381;SDS011;50261;51.150;4.470;2022-08-02T12:09:09;2.58;;;0.80;;
56381;SDS011;50261;51.150;4.470;2022-08-02T12:11:35;3.20;;;1.00;;
56381;SDS011;50261;51.150;4.470;2022-08-02T12:14:01;5.30;;;1.23;;
56381;SDS011;50261;51.150;4.470;2022-08-02T12:16:34;2.90;;;0.95;;
56381;SDS011;50261;51.150;4.470;2022-08-02T12:19:18;4.45;;;0.95;;
56381;SDS011;50261;51.150;4.470;2022-08-02T12:21:47;3.90;;;1.08;;
56381;SDS011;50261;51.150;4.470;2022-08-02T12:24:25;2.08;;;1.10;;
56381;SDS011;50261;51.150;4.470;2022-08-02T12:26:51;2.80;;;1.00;;
56381;SDS011;50261;51.150;4.470;2022-08-02T12:29:16;4.05;;;1.10;;
56381;SDS011;50261;51.150;4.470;2022-08-02T12:31:53;3.60;;;1.00;;
56381;SDS011;50261;51.150;4.470;2022-08-02T12:34:18;3.97;;;0.85;;
56381;SDS011;50261;51.150;4.470;2022-08-02T12:36:58;3.25;;;0.80;;
56381;SDS011;50261;51.150;4.470;2022-08-02T12:39:34;4.38;;;0.90;;
56381;SDS011;50261;51.150;4.470;2022-08-02T12:42:00;2.38;;;0.95;;
56381;SDS011;50261;51.150;4.470;2022-08-02T12:44:26;4.55;;;1.08;;
56381;SDS011;50261;51.150;4.470;2022-08-02T12:47:02;2.08;;;1.13;;
56381;SDS011;50261;51.150;4.470;2022-08-02T12:49:29;3.15;;;0.70;;
56381;SDS011;50261;51.150;4.470;2022-08-02T12:51:54;6.55;;;1.20;;
56381;SDS011;50261;51.150;4.470;2022-08-02T12:54:21;4.93;;;1.00;;
56381;SDS011;50261;51.150;4.470;2022-08-02T12:56:47;4.07;;;1.00;;
56381;SDS011;50261;51.150;4.470;2022-08-02T12:59:14;3.88;;;1.23;;
56381;SDS011;50261;51.150;4.470;2022-08-02T13:01:40;5.90;;;1.20;;
56381;SDS011;50261;51.150;4.470;2022-08-02T13:04:05;6.03;;;1.40;;
56381;SDS011;50261;51.150;4.470;2022-08-02T13:06:31;2.58;;;0.90;;
56381;SDS011;50261;51.150;4.470;2022-08-02T13:08:57;1.23;;;0.63;;
56381;SDS011;50261;51.150;4.470;2022-08-02T13:11:23;3.72;;;0.73;;
56381;SDS011;50261;51.150;4.470;2022-08-02T13:13:49;5.35;;;1.15;;
56381;SDS011;50261;51.150;4.470;2022-08-02T13:16:15;3.75;;;0.90;;
56381;SDS011;50261;51.150;4.470;2022-08-02T13:18:41;4.00;;;0.95;;
56381;SDS011;50261;51.150;4.470;2022-08-02T13:21:06;2.75;;;0.93;;
56381;SDS011;50261;51.150;4.470;2022-08-02T13:23:33;4.22;;;1.02;;
56381;SDS011;50261;51.150;4.470;2022-08-02T13:25:59;4.45;;;0.98;;
56381;SDS011;50261;51.150;4.470;2022-08-02T13:28:25;2.47;;;1.00;;
56381;SDS011;50261;51.150;4.470;2022-08-02T13:30:51;4.07;;;0.95;;
56381;SDS011;50261;51.150;4.470;2022-08-02T13:33:17;1.52;;;0.75;;
56381;SDS011;50261;51.150;4.470;2022-08-02T13:35:43;2.03;;;0.90;;
56381;SDS011;50261;51.150;4.470;2022-08-02T13:38:09;2.08;;;0.80;;
56381;SDS011;50261;51.150;4.470;2022-08-02T13:40:35;2.78;;;1.00;;
56381;SDS011;50261;51.150;4.470;2022-08-02T13:43:23;5.10;;;0.77;;
56381;SDS011;50261;51.150;4.470;2022-08-02T13:45:49;2.63;;;0.98;;
56381;SDS011;50261;51.150;4.470;2022-08-02T13:48:14;5.93;;;1.05;;
56381;SDS011;50261;51.150;4.470;2022-08-02T13:50:40;4.20;;;1.20;;
56381;SDS011;50261;51.150;4.470;2022-08-02T13:53:06;2.42;;;0.90;;
56381;SDS011;50261;51.150;4.470;2022-08-02T13:55:31;5.38;;;1.30;;
56381;SDS011;50261;51.150;4.470;2022-08-02T13:57:57;5.32;;;1.17;;
56381;SDS011;50261;51.150;4.470;2022-08-02T14:00:23;2.78;;;1.17;;
56381;SDS011;50261;51.150;4.470;2022-08-02T14:02:49;4.80;;;1.10;;
56381;SDS011;50261;51.150;4.470;2022-08-02T14:05:15;5.13;;;1.33;;
56381;SDS011;50261;51.150;4.470;2022-08-02T14:07:40;3.20;;;0.90;;
56381;SDS011;50261;51.150;4.470;2022-08-02T14:10:06;4.57;;;0.90;;
56381;SDS011;50261;51.150;4.470;2022-08-02T14:12:32;2.70;;;1.02;;
56381;SDS011;50261;51.150;4.470;2022-08-02T14:14:57;2.05;;;0.90;;
56381;SDS011;50261;51.150;4.470;2022-08-02T14:17:23;2.63;;;1.10;;
56381;SDS011;50261;51.150;4.470;2022-08-02T14:19:49;8.05;;;1.30;;
56381;SDS011;50261;51.150;4.470;2022-08-02T14:22:15;6.13;;;1.02;;
56381;SDS011;50261;51.150;4.470;2022-08-02T14:24:41;3.10;;;0.75;;
56381;SDS011;50261;51.150;4.470;2022-08-02T14:27:06;4.15;;;1.23;;
56381;SDS011;50261;51.150;4.470;2022-08-02T14:29:32;2.92;;;1.00;;
56381;SDS011;50261;51.150;4.470;2022-08-02T14:31:58;5.22;;;1.45;;
56381;SDS011;50261;51.150;4.470;2022-08-02T14:34:23;5.40;;;0.80;;
56381;SDS011;50261;51.150;4.470;2022-08-02T14:36:49;2.88;;;1.00;;
56381;SDS011;50261;51.150;4.470;2022-08-02T14:39:15;2.88;;;0.80;;
56381;SDS011;50261;51.150;4.470;2022-08-02T14:41:40;5.00;;;0.85;;
56381;SDS011;50261;51.150;4.470;2022-08-02T14:44:06;3.08;;;0.82;;
56381;SDS011;50261;51.150;4.470;2022-08-02T14:46:38;6.90;;;0.95;;
56381;SDS011;50261;51.150;4.470;2022-08-02T14:49:07;2.28;;;0.90;;
56381;SDS011;50261;51.150;4.470;2022-08-02T14:51:34;6.97;;;1.10;;
56381;SDS011;50261;51.150;4.470;2022-08-02T14:54:00;4.35;;;1.00;;
56381;SDS011;50261;51.150;4.470;2022-08-02T14:56:26;7.30;;;1.10;;
56381;SDS011;50261;51.150;4.470;2022-08-02T14:58:52;2.65;;;0.77;;
56381;SDS011;50261;51.150;4.470;2022-08-02T15:01:18;3.97;;;1.10;;
56381;SDS011;50261;51.150;4.470;2022-08-02T15:03:44;3.72;;;0.90;;
56381;SDS011;50261;51.150;4.470;2022-08-02T15:06:09;4.60;;;1.00;;
56381;SDS011;50261;51.150;4.470;2022-08-02T15:08:35;3.88;;;0.95;;
56381;SDS011;50261;51.150;4.470;2022-08-02T15:11:01;5.60;;;1.40;;
56381;SDS011;50261;51.150;4.470;2022-08-02T15:13:26;4.43;;;1.00;;
56381;SDS011;50261;51.150;4.470;2022-08-02T15:15:52;8.45;;;1.30;;
56381;SDS011;50261;51.150;4.470;2022-08-02T15:18:18;2.35;;;0.90;;
56381;SDS011;50261;51.150;4.470;2022-08-02T15:20:43;4.68;;;1.17;;
56381;SDS011;50261;51.150;4.470;2022-08-02T15:23:14;6.22;;;1.70;;